Terminal Aerodrome Forecast
Issued by NWS

Home | Current Version | Previous Version | Text Only | Print | Product List | Glossary On
Versions: 1 2 3 4 5 6 7 8 9 10 11 12 13 14
637
FTUS46 KHNX 110545
TAFBFL
TAF
KBFL 110545Z 1106/1206 01007KT P6SM BKN040 OVC060
     FM110900 02005KT 4SM BR OVC025
      TEMPO 1110/1114 4SM -RA BR OVC020
     FM112200 31004KT P6SM OVC030=

USA.gov is the U.S. government's official web portal to all federal, state and local government web resources and services.